Time;durP1;ratioP1;P1;durP2;ratioP2;P2;SDS_P1;SDS_P2;PMS_P1;PMS_P2;Temp;Humidity;BMP_temperature;BMP_pressure;BME280_temperature;BME280_humidity;BME280_pressure;Samples;Min_cycle;Max_cycle;Signal;HPM_P1;HPM_P2
2021/05/19 00:00:42;;;;;;;2.00;1.43;;;9.70;99.70;;;;;;5090721;28;20438;-67
2021/05/19 00:03:09;;;;;;;2.63;1.70;;;9.80;99.70;;;;;;5090207;28;20465;-67
2021/05/19 00:05:36;;;;;;;3.70;1.80;;;9.80;99.70;;;;;;5090979;28;20442;-67
2021/05/19 00:08:02;;;;;;;2.07;1.70;;;9.70;99.70;;;;;;5090418;28;20438;-67
2021/05/19 00:10:28;;;;;;;2.70;1.70;;;9.80;99.70;;;;;;5087185;28;20531;-67
2021/05/19 00:12:54;;;;;;;3.83;1.93;;;9.70;99.70;;;;;;5069609;28;20890;-67
2021/05/19 00:15:20;;;;;;;2.40;1.97;;;9.70;99.70;;;;;;5070440;28;20447;-67
2021/05/19 00:17:47;;;;;;;2.93;1.80;;;9.70;99.70;;;;;;5070215;28;20442;-67
2021/05/19 00:20:15;;;;;;;5.43;1.70;;;9.80;99.70;;;;;;5070017;28;20438;-67
2021/05/19 00:22:42;;;;;;;2.33;1.50;;;9.70;99.70;;;;;;5069899;28;20466;-67
2021/05/19 00:25:09;;;;;;;2.00;1.40;;;9.70;99.70;;;;;;5070063;28;20438;-67
2021/05/19 00:27:35;;;;;;;2.10;1.53;;;9.80;99.70;;;;;;5081441;28;20450;-67
2021/05/19 00:30:03;;;;;;;1.90;1.37;;;9.70;99.70;;;;;;5090382;28;20442;-67
2021/05/19 00:32:29;;;;;;;2.10;1.50;;;9.70;99.70;;;;;;5090122;28;20462;-67
2021/05/19 00:34:55;;;;;;;2.10;1.53;;;9.70;99.70;;;;;;5089842;28;20468;-67
2021/05/19 00:37:22;;;;;;;3.77;1.47;;;9.70;99.70;;;;;;5090325;28;20937;-67
2021/05/19 00:39:48;;;;;;;2.60;1.47;;;9.80;99.70;;;;;;5090133;28;20452;-67
2021/05/19 00:42:15;;;;;;;1.87;1.40;;;9.80;99.70;;;;;;5089858;28;20484;-67
2021/05/19 00:44:42;;;;;;;1.97;1.40;;;9.90;99.70;;;;;;5088147;28;20441;-67
2021/05/19 00:47:08;;;;;;;2.23;1.60;;;9.80;99.70;;;;;;5089808;28;20813;-67
2021/05/19 00:49:35;;;;;;;2.30;1.40;;;9.80;99.70;;;;;;5089868;28;20454;-67
2021/05/19 00:52:01;;;;;;;2.07;1.30;;;9.70;99.70;;;;;;5089745;28;20481;-67
2021/05/19 00:54:28;;;;;;;1.80;1.40;;;9.70;99.70;;;;;;5089945;28;20494;-67
2021/05/19 00:56:54;;;;;;;2.63;1.67;;;9.80;99.70;;;;;;5089815;28;20457;-67
2021/05/19 00:59:21;;;;;;;1.87;1.30;;;9.90;99.70;;;;;;5090223;28;20464;-67
2021/05/19 01:01:47;;;;;;;1.50;1.10;;;9.90;99.70;;;;;;5087750;28;20507;-67
2021/05/19 01:04:13;;;;;;;2.77;1.70;;;9.70;99.70;;;;;;5089613;28;20449;-67
2021/05/19 01:06:46;;;;;;;2.53;1.83;;;9.60;99.70;;;;;;5090102;28;20451;-67
2021/05/19 01:11:58;;;;;;;2.40;1.40;;;9.50;99.70;;;;;;5089837;28;20558;-67
2021/05/19 01:14:24;;;;;;;1.93;1.27;;;9.50;99.70;;;;;;5089703;28;20499;-67
2021/05/19 01:16:50;;;;;;;2.43;1.57;;;9.40;99.70;;;;;;5082984;28;20450;-67
2021/05/19 01:19:20;;;;;;;3.60;1.73;;;9.50;99.70;;;;;;5070566;28;20447;-67
2021/05/19 01:21:49;;;;;;;1.80;1.40;;;9.40;99.70;;;;;;5069651;28;20474;-67
2021/05/19 01:24:16;;;;;;;1.60;1.20;;;9.40;99.70;;;;;;5069142;28;20447;-67
2021/05/19 01:26:43;;;;;;;1.97;1.50;;;9.40;99.70;;;;;;5069634;28;20443;-67
2021/05/19 01:29:09;;;;;;;1.60;1.33;;;9.50;99.70;;;;;;5069135;28;20439;-67
2021/05/19 01:31:35;;;;;;;2.60;1.53;;;9.60;99.70;;;;;;5069828;28;20471;-67
2021/05/19 01:34:03;;;;;;;1.70;1.20;;;9.50;99.70;;;;;;5086770;28;20445;-67
2021/05/19 01:36:29;;;;;;;2.30;1.43;;;9.50;99.70;;;;;;5093434;28;20450;-67
2021/05/19 01:38:55;;;;;;;2.93;1.60;;;9.40;99.70;;;;;;5093592;28;20448;-67
2021/05/19 01:41:22;;;;;;;2.13;1.50;;;9.50;99.70;;;;;;5093268;28;20444;-67
2021/05/19 01:43:48;;;;;;;1.77;1.30;;;9.50;99.70;;;;;;5093010;28;20472;-67
2021/05/19 01:46:15;;;;;;;1.50;1.20;;;9.40;99.70;;;;;;5093582;28;20524;-67
2021/05/19 01:48:43;;;;;;;2.20;1.43;;;9.40;99.70;;;;;;5091512;28;20441;-67
2021/05/19 01:51:09;;;;;;;2.40;1.60;;;9.40;99.70;;;;;;5092907;28;20864;-67
2021/05/19 01:53:38;;;;;;;2.63;1.50;;;9.40;99.70;;;;;;5092982;28;20465;-67
2021/05/19 01:56:04;;;;;;;2.00;1.30;;;9.30;99.70;;;;;;5093430;28;20446;-67
2021/05/19 01:58:32;;;;;;;2.10;1.20;;;9.30;99.70;;;;;;5093028;28;20445;-67
2021/05/19 02:00:58;;;;;;;1.70;1.33;;;9.30;99.70;;;;;;5093305;28;21016;-67
2021/05/19 02:03:25;;;;;;;2.13;1.33;;;9.30;99.70;;;;;;5092679;28;20462;-67
2021/05/19 02:05:51;;;;;;;3.33;1.70;;;9.30;99.70;;;;;;5084938;28;20451;-67
2021/05/19 02:08:17;;;;;;;3.00;1.63;;;9.30;99.70;;;;;;5072425;28;20473;-67
2021/05/19 02:10:43;;;;;;;2.30;1.70;;;9.20;99.70;;;;;;5072612;28;20482;-67
2021/05/19 02:13:11;;;;;;;2.37;1.60;;;9.20;99.70;;;;;;5072106;28;20800;-67
2021/05/19 02:15:39;;;;;;;2.17;1.50;;;9.20;99.70;;;;;;5072916;28;20988;-67
2021/05/19 02:18:05;;;;;;;1.80;1.40;;;9.10;99.70;;;;;;5072462;28;20454;-67
2021/05/19 02:20:32;;;;;;;2.03;1.40;;;9.10;99.70;;;;;;5072657;28;20446;-67
2021/05/19 02:22:59;;;;;;;1.87;1.50;;;9.20;99.70;;;;;;5086391;28;20462;-67
2021/05/19 02:25:25;;;;;;;2.20;1.33;;;9.10;99.70;;;;;;5092580;28;20472;-67
2021/05/19 02:27:53;;;;;;;1.90;1.50;;;9.10;99.70;;;;;;5092341;28;20454;-67
2021/05/19 02:30:21;;;;;;;2.53;1.60;;;9.10;99.70;;;;;;5092389;28;20500;-68
2021/05/19 02:32:49;;;;;;;2.17;1.30;;;9.10;99.70;;;;;;5092284;28;20553;-67
2021/05/19 02:35:17;;;;;;;3.17;1.53;;;9.10;99.70;;;;;;5092358;28;20442;-67
2021/05/19 02:37:44;;;;;;;3.20;1.53;;;9.20;99.70;;;;;;5091087;28;20453;-67
2021/05/19 02:40:13;;;;;;;2.47;1.70;;;9.10;99.70;;;;;;5093522;28;20851;-67
2021/05/19 02:42:39;;;;;;;1.50;1.30;;;9.10;99.70;;;;;;5091717;28;20458;-67
2021/05/19 02:45:07;;;;;;;2.43;1.80;;;9.10;99.70;;;;;;5092582;28;20442;-67
2021/05/19 02:47:34;;;;;;;1.70;1.57;;;9.00;99.70;;;;;;5092168;28;20449;-67
2021/05/19 02:50:01;;;;;;;2.47;1.67;;;9.10;99.70;;;;;;5091914;28;20460;-67
2021/05/19 02:52:27;;;;;;;1.97;1.37;;;9.10;99.70;;;;;;5091923;28;20516;-67
2021/05/19 02:54:53;;;;;;;4.47;2.33;;;9.10;99.70;;;;;;5090347;28;20854;-67
2021/05/19 02:57:19;;;;;;;2.23;1.60;;;9.10;99.70;;;;;;5092133;28;20438;-67
2021/05/19 02:59:45;;;;;;;1.77;1.60;;;9.10;99.70;;;;;;5092530;28;20453;-67
2021/05/19 03:02:12;;;;;;;3.00;1.70;;;9.10;99.70;;;;;;5092083;28;20457;-67
2021/05/19 03:04:38;;;;;;;1.50;1.27;;;9.10;99.70;;;;;;5091988;28;20446;-67
2021/05/19 03:07:05;;;;;;;2.30;1.47;;;9.00;99.70;;;;;;5092196;28;20442;-67
2021/05/19 03:09:32;;;;;;;2.50;1.40;;;9.00;99.70;;;;;;5091877;28;20453;-67
2021/05/19 03:11:58;;;;;;;2.97;1.53;;;9.00;99.70;;;;;;5090317;28;20488;-67
2021/05/19 03:14:24;;;;;;;2.37;1.50;;;9.00;99.70;;;;;;5091349;28;20442;-67
2021/05/19 03:16:50;;;;;;;2.00;1.37;;;9.00;99.70;;;;;;5091666;28;20975;-67
2021/05/19 03:19:16;;;;;;;1.80;1.40;;;9.00;99.70;;;;;;5091535;28;20442;-66
2021/05/19 03:21:43;;;;;;;1.70;1.50;;;8.90;99.70;;;;;;5091906;28;20495;-66
2021/05/19 03:24:10;;;;;;;2.03;1.43;;;9.00;99.70;;;;;;5091046;28;20446;-66
2021/05/19 03:26:36;;;;;;;2.23;1.43;;;9.00;99.70;;;;;;5091870;28;20449;-66
2021/05/19 03:29:03;;;;;;;2.70;1.60;;;9.00;99.70;;;;;;5081026;28;20850;-66
2021/05/19 03:31:29;;;;;;;2.43;1.20;;;8.90;99.70;;;;;;5070900;28;20478;-66
2021/05/19 03:33:55;;;;;;;1.90;1.33;;;9.00;99.70;;;;;;5070681;28;20450;-66
2021/05/19 03:36:22;;;;;;;2.33;1.50;;;9.00;99.70;;;;;;5072122;28;20454;-66
2021/05/19 03:38:48;;;;;;;1.67;1.33;;;9.00;99.70;;;;;;5090581;28;20446;-66
2021/05/19 03:41:15;;;;;;;1.50;1.13;;;9.00;99.70;;;;;;5090960;28;20826;-66
2021/05/19 03:43:41;;;;;;;2.10;1.47;;;8.90;99.70;;;;;;5090973;28;20465;-66
2021/05/19 03:46:07;;;;;;;2.87;1.40;;;8.90;99.70;;;;;;5074037;28;20451;-66
2021/05/19 03:48:34;;;;;;;2.50;1.30;;;8.90;99.70;;;;;;5070714;28;20968;-66
2021/05/19 03:51:00;;;;;;;2.80;1.60;;;8.90;99.70;;;;;;5070675;28;20474;-66
2021/05/19 03:53:26;;;;;;;3.57;1.63;;;8.90;99.70;;;;;;5070571;28;20474;-66
2021/05/19 03:55:52;;;;;;;3.07;1.60;;;9.00;99.70;;;;;;5070325;28;20485;-66
2021/05/19 03:58:19;;;;;;;2.00;1.60;;;8.90;99.70;;;;;;5090585;28;20454;-66
2021/05/19 04:00:46;;;;;;;3.83;1.73;;;8.90;99.70;;;;;;5090677;28;20434;-66
2021/05/19 04:03:12;;;;;;;2.30;1.60;;;8.90;99.70;;;;;;5090270;28;21032;-66
2021/05/19 04:05:39;;;;;;;2.07;1.53;;;9.00;99.70;;;;;;5090846;28;20446;-66
2021/05/19 04:08:07;;;;;;;2.27;1.53;;;9.00;99.70;;;;;;5090526;28;20491;-66
2021/05/19 04:10:34;;;;;;;2.37;1.60;;;8.90;99.70;;;;;;5086358;28;20443;-65
2021/05/19 04:13:03;;;;;;;2.53;1.40;;;8.90;99.70;;;;;;5066104;28;20463;-66
2021/05/19 04:15:31;;;;;;;1.53;1.27;;;8.90;99.70;;;;;;5070187;28;20540;-66
2021/05/19 04:17:58;;;;;;;2.23;1.50;;;8.90;99.70;;;;;;5070407;28;20443;-66
2021/05/19 04:20:24;;;;;;;1.80;1.30;;;8.90;99.70;;;;;;5069942;28;20465;-64
2021/05/19 04:22:50;;;;;;;1.60;1.40;;;8.90;99.70;;;;;;5069892;28;20470;-66
2021/05/19 04:25:17;;;;;;;1.80;1.47;;;8.90;99.70;;;;;;5069919;28;20450;-66
2021/05/19 04:27:44;;;;;;;2.23;1.50;;;8.90;99.70;;;;;;5070649;28;20450;-66
2021/05/19 04:30:11;;;;;;;2.00;1.43;;;9.00;99.70;;;;;;5066344;28;20469;-64
2021/05/19 04:32:38;;;;;;;2.23;1.60;;;9.00;99.70;;;;;;5064721;28;20556;-65
2021/05/19 04:35:06;;;;;;;2.27;1.50;;;9.00;99.70;;;;;;5065537;28;20438;-65
2021/05/19 04:37:33;;;;;;;2.07;1.30;;;9.00;99.70;;;;;;5064907;28;20465;-65
2021/05/19 04:39:59;;;;;;;2.37;1.47;;;9.10;99.70;;;;;;5065118;28;20946;-65
2021/05/19 04:42:26;;;;;;;3.43;1.50;;;9.10;99.70;;;;;;5068305;28;20463;-66
2021/05/19 04:44:52;;;;;;;2.40;1.73;;;9.10;99.70;;;;;;5086359;28;20567;-66
2021/05/19 04:47:18;;;;;;;2.40;1.90;;;9.10;99.70;;;;;;5089636;28;20441;-65
2021/05/19 04:49:45;;;;;;;2.30;1.50;;;9.10;99.70;;;;;;5090074;28;20453;-66
2021/05/19 04:52:12;;;;;;;2.03;1.40;;;9.10;99.70;;;;;;5089433;28;20933;-66
2021/05/19 04:54:38;;;;;;;1.67;1.40;;;9.10;99.70;;;;;;5089827;28;20446;-65
2021/05/19 04:57:05;;;;;;;2.63;1.63;;;9.20;99.70;;;;;;5089732;28;20449;-66
2021/05/19 04:59:31;;;;;;;2.10;1.50;;;9.10;99.70;;;;;;5089822;28;20441;-66
2021/05/19 05:01:57;;;;;;;2.47;1.60;;;9.10;99.70;;;;;;5069578;28;20458;-66
2021/05/19 05:04:23;;;;;;;2.40;1.50;;;9.10;99.70;;;;;;5069266;28;20822;-66
2021/05/19 05:06:50;;;;;;;2.10;1.43;;;9.20;99.70;;;;;;5072318;28;20451;-66
2021/05/19 05:09:16;;;;;;;2.90;1.80;;;9.20;99.70;;;;;;5073752;28;20917;-66
2021/05/19 05:11:43;;;;;;;2.90;1.70;;;9.20;99.70;;;;;;5073691;28;20478;-66
2021/05/19 05:14:09;;;;;;;2.40;1.53;;;9.20;99.70;;;;;;5073324;28;20487;-66
2021/05/19 05:16:35;;;;;;;2.97;1.60;;;9.20;99.70;;;;;;5073482;28;20446;-66
2021/05/19 05:19:01;;;;;;;2.57;1.60;;;9.20;99.70;;;;;;5073545;28;20458;-66
2021/05/19 05:21:27;;;;;;;3.10;1.70;;;9.20;99.70;;;;;;5073231;28;20439;-66
2021/05/19 05:23:54;;;;;;;2.53;1.60;;;9.30;99.70;;;;;;5073521;28;20450;-66
2021/05/19 05:26:20;;;;;;;1.83;1.50;;;9.30;99.70;;;;;;5073068;28;20454;-66
2021/05/19 05:28:47;;;;;;;2.93;2.10;;;9.20;99.70;;;;;;5072727;28;20942;-66
2021/05/19 05:31:13;;;;;;;3.07;1.47;;;9.30;99.70;;;;;;5073016;28;20897;-66
2021/05/19 05:33:39;;;;;;;1.40;1.33;;;9.30;99.70;;;;;;5072435;28;20520;-65
2021/05/19 05:36:06;;;;;;;2.23;1.63;;;9.50;99.70;;;;;;5071672;28;20457;-66
2021/05/19 05:38:32;;;;;;;2.37;1.60;;;9.50;99.70;;;;;;5072601;28;20496;-66
2021/05/19 05:40:59;;;;;;;3.73;2.07;;;9.50;99.70;;;;;;5072617;28;20827;-66
2021/05/19 05:43:25;;;;;;;2.97;1.70;;;9.50;99.70;;;;;;5072249;28;20467;-67
2021/05/19 05:45:51;;;;;;;2.53;1.60;;;9.70;99.70;;;;;;5072541;28;21014;-67
2021/05/19 05:48:18;;;;;;;2.27;1.53;;;9.80;99.70;;;;;;5072134;28;20434;-67
2021/05/19 05:50:44;;;;;;;2.33;1.67;;;9.80;99.70;;;;;;5072255;28;20986;-67
2021/05/19 05:53:10;;;;;;;2.13;1.70;;;9.80;99.70;;;;;;5070530;28;20474;-65
2021/05/19 05:55:36;;;;;;;1.70;1.40;;;9.80;99.70;;;;;;5073207;28;20889;-67
2021/05/19 05:58:04;;;;;;;3.53;1.83;;;10.00;99.70;;;;;;5072614;28;20941;-67
2021/05/19 06:00:30;;;;;;;6.17;1.70;;;10.00;99.70;;;;;;5072326;28;20470;-67
2021/05/19 06:02:57;;;;;;;3.50;2.03;;;10.10;99.70;;;;;;5071156;28;20493;-66
2021/05/19 06:05:23;;;;;;;3.67;1.50;;;10.20;99.70;;;;;;5080777;28;20450;-66
2021/05/19 06:07:49;;;;;;;2.67;1.60;;;10.60;99.70;;;;;;5077151;28;20892;-66
2021/05/19 06:10:16;;;;;;;3.50;1.90;;;10.80;99.70;;;;;;5081098;28;20442;-67
2021/05/19 06:12:42;;;;;;;2.33;1.50;;;11.00;99.70;;;;;;5077167;28;20490;-67
2021/05/19 06:15:10;;;;;;;3.13;1.80;;;11.10;99.70;;;;;;5072162;28;20830;-67
2021/05/19 06:17:36;;;;;;;2.23;1.60;;;11.00;99.70;;;;;;5085966;28;20454;-66
2021/05/19 06:20:04;;;;;;;3.70;2.10;;;11.40;99.70;;;;;;5091335;28;20461;-66
2021/05/19 06:22:30;;;;;;;2.00;1.40;;;11.40;99.70;;;;;;5092013;28;20458;-66
2021/05/19 06:24:57;;;;;;;3.60;2.13;;;11.40;99.70;;;;;;5078089;28;20439;-66
2021/05/19 06:27:23;;;;;;;4.20;2.00;;;11.30;99.70;;;;;;5071186;28;20439;-66
2021/05/19 06:29:49;;;;;;;3.90;1.90;;;11.10;99.70;;;;;;5076306;28;20516;-67
2021/05/19 06:32:16;;;;;;;3.47;2.10;;;11.30;99.70;;;;;;5084593;28;20481;-66
2021/05/19 06:34:43;;;;;;;3.30;1.90;;;11.60;99.70;;;;;;5081497;28;20438;-66
2021/05/19 06:37:09;;;;;;;2.60;1.90;;;11.70;99.70;;;;;;5085808;28;20438;-67
2021/05/19 06:39:35;;;;;;;3.03;2.00;;;11.70;99.70;;;;;;5071815;28;20446;-66
2021/05/19 06:42:01;;;;;;;3.23;1.90;;;11.80;99.70;;;;;;5071785;28;20491;-66
2021/05/19 06:44:27;;;;;;;4.20;2.13;;;11.70;99.70;;;;;;5071515;28;20438;-66
2021/05/19 06:46:54;;;;;;;3.97;2.23;;;11.60;99.70;;;;;;5071908;28;20496;-67
2021/05/19 06:49:21;;;;;;;5.73;2.13;;;11.50;99.70;;;;;;5071697;28;20462;-66
2021/05/19 06:51:47;;;;;;;4.57;2.70;;;11.50;99.70;;;;;;5072694;28;20479;-67
2021/05/19 06:54:14;;;;;;;2.63;1.70;;;11.50;99.70;;;;;;5071470;28;20489;-66
2021/05/19 06:56:43;;;;;;;3.90;2.00;;;11.50;99.70;;;;;;5071345;28;20446;-66
2021/05/19 06:59:10;;;;;;;5.10;2.70;;;11.60;99.70;;;;;;5071932;28;20450;-67
2021/05/19 07:01:36;;;;;;;3.87;2.50;;;11.50;99.70;;;;;;5071225;28;20450;-67
2021/05/19 07:04:03;;;;;;;4.70;2.50;;;11.40;99.70;;;;;;5085898;28;20441;-66
2021/05/19 07:06:30;;;;;;;4.27;2.40;;;11.50;99.70;;;;;;5091542;28;20457;-66
2021/05/19 07:08:56;;;;;;;4.50;2.13;;;11.80;99.70;;;;;;5071781;28;20455;-66
2021/05/19 07:11:22;;;;;;;4.70;2.10;;;11.90;99.70;;;;;;5081833;28;20584;-67
2021/05/19 07:13:50;;;;;;;4.20;2.40;;;11.80;99.70;;;;;;5079443;28;20482;-66
2021/05/19 07:16:19;;;;;;;4.77;2.03;;;11.60;99.70;;;;;;5086872;28;20449;-66
2021/05/19 07:18:45;;;;;;;3.97;2.10;;;12.00;99.70;;;;;;5091372;28;21005;-66
2021/05/19 07:21:11;;;;;;;4.17;2.33;;;12.00;99.70;;;;;;5088056;28;20448;-66
2021/05/19 07:23:38;;;;;;;5.07;2.30;;;12.00;99.70;;;;;;5079576;28;20458;-66
2021/05/19 07:26:05;;;;;;;5.70;2.87;;;12.10;99.70;;;;;;5073944;28;20438;-66
2021/05/19 07:28:32;;;;;;;3.67;2.23;;;12.70;99.70;;;;;;5070014;28;20999;-66
2021/05/19 07:30:58;;;;;;;4.73;2.10;;;12.80;99.70;;;;;;5070091;28;20479;-66
2021/05/19 07:33:24;;;;;;;4.57;2.10;;;13.10;99.70;;;;;;5083015;28;20469;-66
2021/05/19 07:35:51;;;;;;;3.50;2.10;;;13.30;99.70;;;;;;5091307;28;20453;-66
2021/05/19 07:38:17;;;;;;;4.70;2.80;;;13.60;99.70;;;;;;5091062;28;21156;-67
2021/05/19 07:40:45;;;;;;;4.90;2.50;;;13.80;99.70;;;;;;5090520;28;20693;-66
2021/05/19 07:43:11;;;;;;;4.20;2.30;;;13.70;99.70;;;;;;5089743;28;20462;-66
2021/05/19 07:45:38;;;;;;;4.80;2.63;;;13.30;99.70;;;;;;5091347;28;20920;-67
2021/05/19 07:48:05;;;;;;;3.93;2.30;;;13.20;99.70;;;;;;5090686;28;20807;-66
2021/05/19 07:50:31;;;;;;;2.97;1.97;;;12.90;99.70;;;;;;5090907;28;20793;-66
2021/05/19 07:52:58;;;;;;;4.40;2.30;;;12.90;99.70;;;;;;5090210;28;20481;-66
2021/05/19 07:55:26;;;;;;;4.93;2.07;;;12.80;99.70;;;;;;5091065;28;20438;-66
2021/05/19 07:57:55;;;;;;;3.93;2.30;;;12.70;99.70;;;;;;5087969;28;20958;-67
2021/05/19 08:00:27;;;;;;;4.87;2.07;;;12.40;99.70;;;;;;5084665;28;20446;-66
2021/05/19 08:02:54;;;;;;;3.83;2.20;;;11.90;99.70;;;;;;5090486;28;20852;-67
2021/05/19 08:05:20;;;;;;;4.77;2.50;;;11.40;99.70;;;;;;5090577;28;20495;-67
2021/05/19 08:07:46;;;;;;;4.40;2.60;;;11.10;99.70;;;;;;5082114;28;20833;-67
2021/05/19 08:10:13;;;;;;;4.80;2.40;;;11.20;99.70;;;;;;5070273;28;20450;-66
2021/05/19 08:12:39;;;;;;;5.27;2.30;;;11.20;99.70;;;;;;5076176;28;20488;-67
2021/05/19 08:15:08;;;;;;;4.87;2.27;;;11.00;99.70;;;;;;5076295;28;20445;-66
2021/05/19 08:17:35;;;;;;;5.10;2.40;;;10.90;99.70;;;;;;5087237;28;20913;-66
2021/05/19 08:20:01;;;;;;;4.13;2.60;;;10.90;99.70;;;;;;5090067;28;20457;-67
2021/05/19 08:22:27;;;;;;;4.80;2.60;;;10.80;99.70;;;;;;5090333;28;20466;-67
2021/05/19 08:24:54;;;;;;;4.43;2.30;;;10.90;99.70;;;;;;5090129;28;20449;-67
2021/05/19 08:27:20;;;;;;;4.57;2.43;;;10.90;99.70;;;;;;5089852;28;20442;-66
2021/05/19 08:29:46;;;;;;;4.43;2.50;;;11.00;99.70;;;;;;5079536;28;20518;-67
2021/05/19 08:32:13;;;;;;;4.73;2.10;;;11.00;99.70;;;;;;5069882;28;20930;-66
2021/05/19 08:34:40;;;;;;;3.80;2.07;;;11.10;99.70;;;;;;5076894;28;20455;-68
2021/05/19 08:37:09;;;;;;;3.83;2.13;;;11.40;99.70;;;;;;5090113;28;20880;-67
2021/05/19 08:39:35;;;;;;;3.43;2.10;;;11.50;99.70;;;;;;5074339;22;20490;-68
2021/05/19 08:42:02;;;;;;;4.97;2.40;;;11.70;99.70;;;;;;5009509;28;20860;-69
2021/05/19 08:44:28;;;;;;;5.43;2.73;;;12.00;99.70;;;;;;5009708;28;20457;-63
2021/05/19 08:46:56;;;;;;;3.23;2.30;;;12.20;99.70;;;;;;5027777;28;20449;-65
2021/05/19 08:49:25;;;;;;;4.53;2.07;;;12.40;99.70;;;;;;5029621;28;20890;-66
2021/05/19 08:51:53;;;;;;;3.30;1.80;;;12.60;99.70;;;;;;5029731;28;20887;-65
2021/05/19 08:54:20;;;;;;;3.83;2.10;;;12.80;99.70;;;;;;5029557;28;20458;-65
2021/05/19 08:56:48;;;;;;;2.70;1.93;;;13.00;99.70;;;;;;5013931;28;20877;-65
2021/05/19 08:59:14;;;;;;;5.90;2.00;;;13.30;99.70;;;;;;5008003;28;20472;-66
2021/05/19 09:01:42;;;;;;;3.20;1.83;;;13.20;99.70;;;;;;5009088;28;20441;-65
2021/05/19 09:04:14;;;;;;;4.33;1.90;;;13.20;99.70;;;;;;5027607;28;20449;-65
2021/05/19 09:06:42;;;;;;;4.03;1.90;;;13.10;99.70;;;;;;5029361;28;20445;-65
2021/05/19 09:09:22;;;;;;;4.20;2.40;;;12.90;99.70;;;;;;5012301;28;20500;-65
2021/05/19 09:11:57;;;;;;;3.23;2.07;;;12.70;99.70;;;;;;5009859;28;20484;-67
2021/05/19 09:14:23;;;;;;;4.17;2.10;;;12.80;99.70;;;;;;5009405;28;20449;-67
2021/05/19 09:16:50;;;;;;;4.83;2.13;;;13.00;99.70;;;;;;5009953;28;20827;-68
2021/05/19 09:19:31;;;;;;;3.80;2.10;;;13.00;99.70;;;;;;5010807;28;20469;-68
2021/05/19 09:21:58;;;;;;;2.97;1.70;;;13.20;99.70;;;;;;5009824;28;21020;-65
2021/05/19 09:24:32;;;;;;;2.30;1.70;;;13.30;99.70;;;;;;4998445;28;20473;-65
2021/05/19 09:27:00;;;;;;;2.60;1.80;;;13.30;99.70;;;;;;4991702;28;20493;-68
2021/05/19 09:29:28;;;;;;;2.80;1.70;;;13.20;99.70;;;;;;5008038;28;20988;-66
2021/05/19 09:31:56;;;;;;;3.20;1.90;;;13.50;99.70;;;;;;5009181;28;20527;-66
2021/05/19 09:34:27;;;;;;;3.97;1.97;;;14.00;99.70;;;;;;5009548;28;20826;-66
2021/05/19 09:36:53;;;;;;;2.77;1.87;;;14.60;99.70;;;;;;5016873;28;20457;-65
2021/05/19 09:39:20;;;;;;;2.73;1.80;;;15.30;99.70;;;;;;5009654;28;20479;-65
2021/05/19 09:41:47;;;;;;;3.53;1.80;;;15.50;99.70;;;;;;5008892;28;20438;-65
2021/05/19 09:44:14;;;;;;;2.70;1.77;;;14.80;99.70;;;;;;5009271;28;20974;-67
2021/05/19 09:46:49;;;;;;;2.20;1.50;;;13.90;99.70;;;;;;5009382;28;20481;-66
2021/05/19 09:49:18;;;;;;;1.80;1.50;;;13.70;99.70;;;;;;5009445;28;20465;-66
2021/05/19 09:51:47;;;;;;;2.33;1.50;;;13.30;99.70;;;;;;5009560;28;20584;-66
2021/05/19 09:54:29;;;;;;;2.40;1.57;;;14.00;99.70;;;;;;5012995;28;20453;-67
2021/05/19 09:56:57;;;;;;;2.53;1.53;;;15.10;99.70;;;;;;5013150;28;20518;-66
2021/05/19 09:59:24;;;;;;;1.93;1.40;;;16.20;99.70;;;;;;5012732;28;20523;-67
2021/05/19 10:01:51;;;;;;;2.10;1.50;;;16.90;97.00;;;;;;5012988;28;20528;-68
2021/05/19 10:04:19;;;;;;;2.50;1.40;;;16.30;95.90;;;;;;5012878;28;20449;-67
2021/05/19 10:06:47;;;;;;;2.33;1.50;;;15.90;99.70;;;;;;5017577;28;20471;-66
2021/05/19 10:09:13;;;;;;;1.70;1.27;;;16.20;99.70;;;;;;5013701;28;20469;-67
2021/05/19 10:11:41;;;;;;;3.20;1.47;;;15.70;96.70;;;;;;5012647;28;20489;-67
2021/05/19 10:14:10;;;;;;;2.30;1.37;;;15.00;99.70;;;;;;5013049;28;20449;-67
2021/05/19 10:16:37;;;;;;;1.70;1.20;;;15.10;98.60;;;;;;5012760;28;20445;-67
2021/05/19 10:19:05;;;;;;;1.80;1.40;;;15.50;99.70;;;;;;5013093;28;20469;-68
2021/05/19 10:21:34;;;;;;;2.00;1.33;;;15.40;96.70;;;;;;5012587;28;20971;-67
2021/05/19 10:24:04;;;;;;;1.70;1.23;;;15.30;97.80;;;;;;5024063;28;20879;-66
2021/05/19 10:26:32;;;;;;;2.37;1.30;;;15.40;96.60;;;;;;5013552;28;20462;-68
2021/05/19 10:29:00;;;;;;;2.00;1.47;;;15.50;95.90;;;;;;5012061;28;20476;-67
2021/05/19 10:31:28;;;;;;;2.67;1.30;;;15.60;98.50;;;;;;5009799;28;20481;-68
2021/05/19 10:33:56;;;;;;;2.80;1.50;;;15.20;95.90;;;;;;4992511;28;20451;-68
2021/05/19 10:36:40;;;;;;;2.20;1.60;;;14.70;99.70;;;;;;4994579;28;20449;-67
2021/05/19 10:39:25;;;;;;;1.90;1.30;;;14.50;99.70;;;;;;4992796;28;20536;-67
2021/05/19 10:41:56;;;;;;;2.43;1.50;;;14.20;98.60;;;;;;4993785;28;20475;-67
2021/05/19 10:44:25;;;;;;;1.43;1.20;;;14.50;99.70;;;;;;4996868;28;20528;-67
2021/05/19 10:46:56;;;;;;;1.80;1.20;;;14.70;97.30;;;;;;5008716;28;20450;-66
2021/05/19 10:49:23;;;;;;;1.47;1.27;;;14.80;98.50;;;;;;4992591;28;20474;-67
2021/05/19 10:52:10;;;;;;;2.20;1.30;;;14.90;93.80;;;;;;4993475;28;21020;-67
2021/05/19 10:57:45;;;;;;;2.70;1.20;;;15.10;93.80;;;;;;5001635;28;20488;-66
2021/05/19 11:00:16;;;;;;;1.40;1.20;;;15.20;95.20;;;;;;5000458;28;21067;-68
2021/05/19 11:03:14;;;;;;;1.70;1.20;;;15.30;90.70;;;;;;5007286;28;20446;-67
2021/05/19 11:06:10;;;;;;;1.50;1.20;;;15.30;90.90;;;;;;5023434;28;20445;-67
2021/05/19 11:08:37;;;;;;;1.50;1.20;;;15.20;90.30;;;;;;5008897;28;20450;-66
2021/05/19 11:11:22;;;;;;;1.73;1.13;;;15.20;93.50;;;;;;5020885;28;20441;-68
2021/05/19 11:14:10;;;;;;;1.67;1.17;;;15.20;92.90;;;;;;5010573;28;20930;-68
2021/05/19 11:16:46;;;;;;;1.33;1.10;;;15.20;90.70;;;;;;5009586;28;20977;-66
2021/05/19 11:19:26;;;;;;;1.60;1.10;;;15.00;91.40;;;;;;5010798;28;20473;-66
2021/05/19 11:21:57;;;;;;;1.60;1.20;;;15.10;94.10;;;;;;5011322;28;20437;-66
2021/05/19 11:24:26;;;;;;;2.10;1.20;;;15.20;90.30;;;;;;5009866;28;20449;-66
2021/05/19 11:26:52;;;;;;;3.37;1.20;;;15.30;89.50;;;;;;5022463;28;20465;-66
2021/05/19 11:29:19;;;;;;;1.40;1.10;;;15.30;90.00;;;;;;5006022;28;20466;-68
2021/05/19 11:31:47;;;;;;;2.07;1.40;;;15.20;89.00;;;;;;5005206;28;20858;-67
2021/05/19 11:34:16;;;;;;;1.70;1.30;;;15.40;89.40;;;;;;5009700;28;21039;-66
2021/05/19 11:36:44;;;;;;;1.60;1.17;;;15.40;90.30;;;;;;5025968;28;20469;-68
2021/05/19 11:39:28;;;;;;;1.60;1.20;;;15.30;91.70;;;;;;5006750;28;20477;-67
2021/05/19 11:42:09;;;;;;;2.17;1.37;;;15.30;87.80;;;;;;4995890;28;20574;-65
2021/05/19 11:44:36;;;;;;;1.80;1.37;;;15.10;91.30;;;;;;5010414;28;20524;-67
2021/05/19 11:47:04;;;;;;;2.30;1.20;;;15.30;91.70;;;;;;5008016;28;20449;-68
2021/05/19 11:49:30;;;;;;;1.77;1.30;;;15.30;91.20;;;;;;5010959;28;20504;-66
2021/05/19 11:51:57;;;;;;;1.77;1.23;;;15.20;90.80;;;;;;5009899;28;20828;-68
2021/05/19 11:54:23;;;;;;;1.90;1.27;;;15.10;94.60;;;;;;5009546;28;20533;-67
2021/05/19 11:56:52;;;;;;;2.20;1.60;;;15.10;94.00;;;;;;5017256;28;21054;-66
2021/05/19 11:59:21;;;;;;;3.30;1.53;;;15.10;92.30;;;;;;5015593;28;20454;-67
2021/05/19 12:02:07;;;;;;;2.27;1.40;;;15.00;92.00;;;;;;5000462;28;20457;-66
2021/05/19 12:04:34;;;;;;;1.63;1.20;;;14.90;92.40;;;;;;5010956;28;20604;-67
2021/05/19 12:07:02;;;;;;;2.17;1.50;;;14.90;91.40;;;;;;5022898;28;20822;-67
2021/05/19 12:09:30;;;;;;;2.00;1.50;;;14.90;92.60;;;;;;5005778;28;20468;-66
2021/05/19 12:12:05;;;;;;;2.70;1.60;;;15.10;92.50;;;;;;5010007;28;20485;-67
2021/05/19 12:14:31;;;;;;;1.40;1.20;;;15.30;95.60;;;;;;5009422;28;20441;-68
2021/05/19 12:16:57;;;;;;;1.90;1.40;;;15.30;88.20;;;;;;5016970;28;20459;-67
2021/05/19 12:19:26;;;;;;;2.30;1.30;;;15.10;90.70;;;;;;5018920;28;20516;-67
2021/05/19 12:22:05;;;;;;;1.97;1.30;;;15.20;89.10;;;;;;4991741;28;20450;-67
2021/05/19 12:24:31;;;;;;;1.60;1.40;;;15.40;89.00;;;;;;4992784;28;20442;-68
2021/05/19 12:27:00;;;;;;;1.50;1.10;;;15.50;86.50;;;;;;4999619;28;20482;-67
2021/05/19 12:29:31;;;;;;;1.40;1.20;;;15.50;87.30;;;;;;5007993;28;20476;-67
2021/05/19 12:32:11;;;;;;;1.73;1.30;;;15.50;89.90;;;;;;5004666;28;20508;-68
2021/05/19 12:34:39;;;;;;;3.57;1.30;;;15.50;87.20;;;;;;5007198;28;20445;-67
2021/05/19 12:37:06;;;;;;;1.50;1.13;;;15.50;85.70;;;;;;5009060;28;20457;-67
2021/05/19 12:39:33;;;;;;;1.30;1.00;;;15.50;83.50;;;;;;5008231;28;20485;-67
2021/05/19 12:42:00;;;;;;;2.40;1.40;;;15.30;85.70;;;;;;5007371;28;20442;-67
2021/05/19 12:44:29;;;;;;;2.37;1.30;;;15.20;86.00;;;;;;5008242;28;20438;-69
2021/05/19 12:47:00;;;;;;;3.17;1.50;;;15.10;89.20;;;;;;5008797;28;20537;-67
2021/05/19 12:49:27;;;;;;;3.50;1.30;;;15.10;86.80;;;;;;5008451;28;20470;-66
2021/05/19 12:51:56;;;;;;;1.70;1.30;;;15.30;85.10;;;;;;5007957;28;20473;-66
2021/05/19 12:54:28;;;;;;;2.53;1.43;;;15.40;86.70;;;;;;5008499;28;20453;-67
2021/05/19 12:57:03;;;;;;;1.77;1.27;;;15.30;83.90;;;;;;5008247;28;20453;-68
2021/05/19 12:59:50;;;;;;;1.40;1.20;;;15.20;88.80;;;;;;5008755;28;20559;-67